ADDS METAR Data INFO
IDs: Format: Raw Decoded Include TAF

Data at: 1128 UTC 17 Jul 2018

KCSV 171053Z AUTO 24004KT 5SM BR BKN004 22/21 A3007 RMK AO2 SLP158 T02170206
KCSV 171024Z AUTO 25003KT 8SM SCT004 21/21 A3006 RMK AO2 T02110206
KCSV 171007Z AUTO 00000KT 9SM BKN004 22/21 A3006 RMK AO2 T02170206
KCSV 170953Z AUTO 25004KT 8SM FEW004 21/21 A3006 RMK AO2 SLP156 T02110206
KCSV 170853Z AUTO 22003KT 7SM CLR 22/21 A3005 RMK AO2 SLP152 T02170211 58003
KCSV 170753Z AUTO 00000KT 6SM BR FEW038 22/21 A3005 RMK AO2 SLP154 T02170206
KCSV 170653Z AUTO 24004KT 8SM BKN050 22/21 A3007 RMK AO2 SLP159 T02170211
KCSV 170553Z AUTO 22003KT 8SM FEW060 22/21 A3006 RMK AO2 SLP156 T02170211 10261 20217 402830211 58003
KCSV 170453Z AUTO 21003KT 9SM CLR 22/21 A3007 RMK AO2 SLP160 T02170211
KCSV 170353Z AUTO 24003KT 10SM CLR 23/21 A3008 RMK AO2 SLP162 T02280211
KCSV 170253Z AUTO 00000KT 10SM CLR 22/21 A3007 RMK AO2 SLP159 T02220211 51013
KCSV 170153Z AUTO 22003KT 10SM CLR 23/21 A3007 RMK AO2 SLP159 T02280211
KCSV 170053Z AUTO 24004KT 10SM CLR 24/21 A3006 RMK AO2 SLP155 T02440211
KCSV 162353Z AUTO 24003KT 10SM CLR 26/21 A3003 RMK AO2 SLP145 60000 T02610211 10283 20244 53001
KCSV 162253Z AUTO VRB04KT 10SM FEW022 27/21 A3002 RMK AO2 SLP143 T02720211
KCSV 162251Z AUTO 27005KT 10SM FEW022 27/21 A3002 RMK AO2
KCSV 162240Z AUTO 29007KT 240V320 10SM BKN024 BKN033 28/21 A3002 RMK AO2 T02780211
KCSV 162153Z AUTO 27006KT 10SM FEW024 FEW035 28/21 A3002 RMK AO2 SLP143 T02830211
KCSV 162053Z AUTO 26009G14KT 10SM SCT027 28/21 A3003 RMK AO2 SLP146 60000 T02780211 58012
KCSV 161953Z AUTO 27009KT 10SM FEW020 SCT026 BKN032 27/22 A3006 RMK AO2 LTG DSNT S SLP155 T02720222
KCSV 161853Z AUTO 24005KT 10SM SCT120 27/23 A3007 RMK AO2 LTG DSNT E-S RAB10E25 SLP160 P0000 T02670228
KCSV 161753Z AUTO 27007KT 10SM OVC095 26/21 A3009 RMK AO2 LTG DSNT E SLP168 T02560211 10267 20228 58008
KCSV 161706Z AUTO 26010KT 10SM FEW017 SCT023 OVC090 26/21 A3011 RMK AO2 T02560211
KCSV 161653Z AUTO 27009KT 10SM SCT019 BKN023 BKN040 26/21 A3011 RMK AO2 SLP174 T02610211
KCSV 161553Z AUTO 27006KT 10SM FEW014 BKN090 BKN110 26/21 A3012 RMK AO2 SLP176 T02560211
KCSV 161511Z AUTO 25005KT 10SM SCT020 OVC100 25/21 A3012 RMK AO2 T02500211
KCSV 161453Z AUTO 25006KT 10SM SCT015 BKN021 BKN090 25/21 A3012 RMK AO2 SLP177 T02500211 50003
KCSV 161432Z AUTO 24007KT 10SM SCT015 BKN021 BKN090 25/21 A3012 RMK AO2 T02500211
KCSV 161418Z AUTO VRB04KT 10SM SCT015 BKN090 25/21 A3012 RMK AO2 T02500211
KCSV 161407Z AUTO VRB04KT 10SM BKN015 BKN090 24/21 A3012 RMK AO2 T02440211
KCSV 161400Z AUTO VRB04KT 10SM SCT013 BKN090 24/21 A3012 RMK AO2 T02440211
KCSV 161353Z AUTO 24006KT 10SM BKN012 BKN090 24/21 A3012 RMK AO2 SLP178 T02440211
KCSV 161351Z AUTO 26006KT 10SM BKN012 OVC085 24/21 A3012 RMK AO2
KCSV 161311Z AUTO VRB04KT 10SM SCT012 SCT030 24/21 A3012 RMK AO2 T02390211
KCSV 161302Z AUTO VRB04KT 10SM BKN011 BKN030 23/21 A3011 RMK AO2 T02330206
KCSV 161253Z AUTO 23004KT 10SM SCT011 BKN016 23/21 A3011 RMK AO2 SLP176 T02280206
KCSV 161228Z AUTO 00000KT 10SM BKN014 OVC021 22/21 A3011 RMK AO2 T02220206
KCSV 161217Z AUTO 00000KT 10SM SCT016 BKN021 OVC050 22/21 A3011 RMK AO2 T02220206
KCSV 161153Z AUTO 23003KT 10SM BKN050 BKN120 22/20 A3010 RMK AO2 SLP171 T02220200 10222 20211 53009
KCSV 161053Z AUTO 00000KT 9SM CLR 22/21 A3009 RMK AO2 SLP168 T02170206
KCSV 160953Z AUTO 00000KT 7SM CLR 21/21 A3008 RMK AO2 SLP163 T02110206
KCSV 160853Z AUTO 00000KT 7SM CLR 22/21 A3007 RMK AO2 SLP161 T02170206 58004
KCSV 160753Z AUTO 00000KT 7SM CLR 22/21 A3008 RMK AO2 SLP163 T02170206
KCSV 160653Z AUTO 00000KT 7SM FEW110 22/21 A3009 RMK AO2 SLP167 T02170211
KCSV 160553Z AUTO 00000KT 7SM FEW100 22/21 A3008 RMK AO2 SLP165 T02170211 10239 20217 402780206 58008
KCSV 160453Z AUTO 00000KT 10SM FEW100 22/21 A3011 RMK AO2 SLP176 T02170206
KCSV 160353Z AUTO 00000KT 10SM CLR 22/21 A3012 RMK AO2 SLP175 T02220206
KCSV 160253Z AUTO 00000KT 10SM CLR 23/21 A3011 RMK AO2 SLP174 T02280206 53013
KCSV 160153Z AUTO 00000KT 10SM CLR 23/21 A3009 RMK AO2 SLP166 T02280206
KCSV 160053Z AUTO 22003KT 10SM CLR 23/21 A3008 RMK AO2 SLP164 T02330206
KCSV 152353Z AUTO 00000KT 10SM CLR 24/21 A3007 RMK AO2 SLP162 T02390211 10267 20239 58009